KMYJ

Mexico Memorial Airport

Mexico, Missouri, USA
METAR KMYJ 241455Z AUTO 13006KT 10SM CLR 26/20 A2989 RMK AO2
Observed Flight Rules
Jun-24 @ 14:55 UTC (9 minutes ago) Visual Flight Rules
Wind Visibility Clouds
130° at 6 knots 10 miles
  • Clear skies
Temperatures Readings
Current 26°C / 79°F
Dewpoint 20°C / 68°F
Humidity 70%
Altimeter 29.89" Hg
Pressure 1012 hPa
Elevation 251
METAR KMYJ 241455Z AUTO 13006KT 10SM CLR 26/20 A2989 RMK AO2
Observed Flight Rules
Jun-24 @ 14:55 UTC
(9 minutes ago)
VFR
Wind Visibility
130° at 6 knots 10 miles
Clouds
  • Clear skies
Temperature Dewpoint
26°C / 79°F 20°C / 68°F
Humidity Altimeter Pressure
70% 29.89" Hg 1012 hPa